createdAt,value
2022-11-09T00:02:02.465Z,8.66
2022-11-09T00:04:31.479Z,8.75
2022-11-09T00:07:01.812Z,8.68
2022-11-09T00:09:30.805Z,8.74
2022-11-09T00:12:07.789Z,8.86
2022-11-09T00:14:43.980Z,9.04
2022-11-09T00:17:12.955Z,9.11
2022-11-09T00:19:48.052Z,9.13
2022-11-09T00:22:21.597Z,9.01
2022-11-09T00:24:57.926Z,8.95
2022-11-09T00:27:30.877Z,8.93
2022-11-09T00:30:23.930Z,8.93
2022-11-09T00:33:03.890Z,8.90
2022-11-09T00:35:42.760Z,8.99
2022-11-09T00:40:03.116Z,9.00
2022-11-09T00:40:56.485Z,9.03
2022-11-09T00:43:33.472Z,9.03
2022-11-09T00:46:08.987Z,8.88
2022-11-09T00:48:42.803Z,8.94
2022-11-09T00:51:16.141Z,8.91
2022-11-09T00:53:46.622Z,8.97
2022-11-09T00:56:18.394Z,8.77
2022-11-09T00:58:50.947Z,8.67
2022-11-09T01:01:26.710Z,8.63
2022-11-09T01:06:48.053Z,8.65
2022-11-09T01:09:22.084Z,8.67
2022-11-09T01:11:53.956Z,8.83
2022-11-09T01:14:44.855Z,8.91
2022-11-09T01:17:15.356Z,8.93
2022-11-09T01:19:46.630Z,8.89
2022-11-09T01:22:17.329Z,9.01
2022-11-09T01:24:56.516Z,9.04
2022-11-09T01:27:55.370Z,8.60
2022-11-09T01:30:24.271Z,9.30
2022-11-09T01:33:05.202Z,9.44
2022-11-09T01:38:40.405Z,9.46
2022-11-09T01:41:12.309Z,9.55
2022-11-09T01:43:41.133Z,9.61
2022-11-09T01:46:23.253Z,9.65
2022-11-09T01:49:08.236Z,9.67
2022-11-09T01:51:45.806Z,9.60
2022-11-09T01:57:16.866Z,9.52
2022-11-09T01:59:52.687Z,9.35
2022-11-09T02:02:25.473Z,9.29
2022-11-09T02:05:03.294Z,9.38
2022-11-09T02:07:35.675Z,9.36
2022-11-09T02:10:14.362Z,9.29
2022-11-09T02:12:46.180Z,9.26
2022-11-09T02:15:20.959Z,9.18
2022-11-09T02:17:54.444Z,9.29
2022-11-09T02:20:31.206Z,9.53
2022-11-09T02:23:03.306Z,9.55
2022-11-09T02:25:37.224Z,9.59
2022-11-09T02:28:10.170Z,9.57
2022-11-09T02:30:40.255Z,9.62
2022-11-09T02:33:18.224Z,9.50
2022-11-09T02:35:56.677Z,9.70
2022-11-09T02:38:31.736Z,9.74
2022-11-09T02:41:01.156Z,9.70
2022-11-09T02:43:33.298Z,9.81
2022-11-09T02:46:03.681Z,9.84
2022-11-09T02:48:35.216Z,9.87
2022-11-09T02:51:05.521Z,9.76
2022-11-09T02:53:35.416Z,9.58
2022-11-09T02:56:07.596Z,9.66
2022-11-09T02:59:06.295Z,9.51
2022-11-09T03:01:38.110Z,9.44
2022-11-09T03:04:15.787Z,9.52
2022-11-09T03:06:46.428Z,9.53
2022-11-09T03:09:16.983Z,9.76
2022-11-09T03:11:49.942Z,9.74
2022-11-09T03:14:22.079Z,9.71
2022-11-09T03:16:53.850Z,9.67
2022-11-09T03:19:25.736Z,9.65
2022-11-09T03:21:54.439Z,9.62
2022-11-09T03:24:26.389Z,9.52
2022-11-09T03:26:55.403Z,9.50
2022-11-09T03:29:27.424Z,9.29
2022-11-09T03:34:49.631Z,8.97
2022-11-09T03:37:27.786Z,8.71
2022-11-09T03:39:58.043Z,8.64
2022-11-09T03:42:32.980Z,8.47
2022-11-09T03:45:40.733Z,8.37
2022-11-09T03:48:28.987Z,8.18
2022-11-09T03:54:30.778Z,7.86
2022-11-09T03:57:53.836Z,7.71
2022-11-09T04:00:38.811Z,7.59
2022-11-09T04:06:18.153Z,7.53
2022-11-09T04:09:23.600Z,7.46
2022-11-09T04:19:14.638Z,7.24
2022-11-09T04:21:46.953Z,7.19
2022-11-09T04:27:35.851Z,7.07
2022-11-09T04:30:06.820Z,7.02
2022-11-09T04:32:50.555Z,7.03
2022-11-09T04:35:19.288Z,7.02
2022-11-09T04:38:05.913Z,6.94
2022-11-09T04:40:41.052Z,6.92
2022-11-09T04:43:14.323Z,6.87
2022-11-09T04:45:49.088Z,6.89
2022-11-09T04:48:17.823Z,6.83
2022-11-09T04:50:46.671Z,6.91
2022-11-09T04:53:16.845Z,6.91
2022-11-09T04:55:45.822Z,6.82
2022-11-09T04:58:14.807Z,7.04
2022-11-09T05:00:47.194Z,7.16
2022-11-09T05:03:16.268Z,7.34
2022-11-09T05:05:48.677Z,7.46
2022-11-09T05:08:17.828Z,7.66
2022-11-09T05:10:46.429Z,7.76
2022-11-09T05:13:18.441Z,7.76
2022-11-09T05:15:47.439Z,7.75
2022-11-09T05:18:16.070Z,7.85
2022-11-09T05:20:44.653Z,7.94
2022-11-09T05:23:31.145Z,7.94
2022-11-09T05:26:01.689Z,7.89
2022-11-09T05:28:33.491Z,7.94
2022-11-09T05:31:02.337Z,7.95
2022-11-09T05:33:31.042Z,7.97
2022-11-09T05:35:59.846Z,7.98
2022-11-09T05:38:28.512Z,7.74
2022-11-09T05:40:58.788Z,7.72
2022-11-09T05:43:35.757Z,7.83
2022-11-09T05:46:09.078Z,7.45
2022-11-09T05:48:37.890Z,8.08
2022-11-09T05:51:08.252Z,7.99
2022-11-09T05:53:43.558Z,8.03
2022-11-09T05:56:11.851Z,7.84
2022-11-09T05:58:52.293Z,7.84
2022-11-09T06:01:25.088Z,7.89
2022-11-09T06:03:58.881Z,7.93
2022-11-09T06:06:29.531Z,8.14
2022-11-09T06:09:01.613Z,8.35
2022-11-09T06:11:30.697Z,8.43
2022-11-09T06:13:59.633Z,8.50
2022-11-09T06:16:31.608Z,8.58
2022-11-09T06:19:02.015Z,8.83
2022-11-09T06:21:35.038Z,9.04
2022-11-09T06:24:06.973Z,9.31
2022-11-09T06:26:35.774Z,9.63
2022-11-09T06:29:05.887Z,9.85
2022-11-09T06:31:34.580Z,10.04
2022-11-09T06:34:05.112Z,10.23
2022-11-09T06:36:37.308Z,10.40
2022-11-09T06:39:13.041Z,10.69
2022-11-09T06:41:46.216Z,10.89
2022-11-09T06:44:14.235Z,10.82
2022-11-09T06:46:47.491Z,11.05
2022-11-09T06:49:35.971Z,11.10
2022-11-09T06:52:10.682Z,11.23
2022-11-09T06:54:45.375Z,11.39
2022-11-09T06:57:23.172Z,11.36
2022-11-09T07:00:23.078Z,11.27
2022-11-09T07:03:03.515Z,10.98
2022-11-09T07:05:32.789Z,10.61
2022-11-09T07:08:01.603Z,10.65
2022-11-09T07:10:41.550Z,10.70
2022-11-09T07:13:10.874Z,10.89
2022-11-09T07:15:50.925Z,10.99
2022-11-09T07:18:24.767Z,11.00
2022-11-09T07:20:53.693Z,10.87
2022-11-09T07:23:23.893Z,11.17
2022-11-09T07:25:56.782Z,11.20
2022-11-09T07:28:26.931Z,10.99
2022-11-09T07:30:55.662Z,11.02
2022-11-09T07:33:25.739Z,11.01
2022-11-09T07:35:59.300Z,11.28
2022-11-09T07:38:30.159Z,11.47
2022-11-09T07:41:04.611Z,11.57
2022-11-09T07:43:34.473Z,11.51
2022-11-09T07:46:10.074Z,11.68
2022-11-09T07:48:42.611Z,11.84
2022-11-09T07:51:14.175Z,11.64
2022-11-09T07:53:43.054Z,11.56
2022-11-09T07:56:11.809Z,11.65
2022-11-09T07:58:44.341Z,11.62
2022-11-09T08:01:16.251Z,11.88
2022-11-09T08:03:45.016Z,12.15
2022-11-09T08:06:18.225Z,12.23
2022-11-09T08:08:46.571Z,12.09
2022-11-09T08:11:25.679Z,12.29
2022-11-09T08:14:02.392Z,12.50
2022-11-09T08:16:37.746Z,12.35
2022-11-09T08:19:14.384Z,12.62
2022-11-09T08:21:47.998Z,12.52
2022-11-09T08:24:20.054Z,12.81
2022-11-09T08:26:52.430Z,13.17
2022-11-09T08:29:25.909Z,13.19
2022-11-09T08:31:56.376Z,13.01
2022-11-09T08:34:25.291Z,13.06
2022-11-09T08:36:55.389Z,13.05
2022-11-09T08:39:27.359Z,13.02
2022-11-09T08:42:02.343Z,13.17
2022-11-09T08:44:33.871Z,13.24
2022-11-09T08:47:17.108Z,13.36
2022-11-09T08:49:56.194Z,13.18
2022-11-09T08:52:25.370Z,13.46
2022-11-09T08:54:56.060Z,13.73
2022-11-09T08:57:28.043Z,13.83
2022-11-09T09:00:17.447Z,13.84
2022-11-09T09:02:46.641Z,13.94
2022-11-09T09:05:15.897Z,13.90
2022-11-09T09:07:47.565Z,13.64
2022-11-09T09:10:16.229Z,13.55
2022-11-09T09:12:46.288Z,13.70
2022-11-09T09:15:17.705Z,13.85
2022-11-09T09:17:47.932Z,14.02
2022-11-09T09:20:18.904Z,13.92
2022-11-09T09:22:52.689Z,13.99
2022-11-09T09:25:21.489Z,13.90
2022-11-09T09:27:52.079Z,14.03
2022-11-09T09:30:25.453Z,14.00
2022-11-09T09:32:56.071Z,13.75
2022-11-09T09:35:32.037Z,14.07
2022-11-09T09:38:01.089Z,14.07
2022-11-09T09:40:38.786Z,14.18
2022-11-09T09:43:26.298Z,14.40
2022-11-09T09:45:56.711Z,14.38
2022-11-09T09:48:54.198Z,14.42
2022-11-09T09:51:35.081Z,14.44
2022-11-09T09:54:06.728Z,14.25
2022-11-09T09:56:37.874Z,14.24
2022-11-09T09:59:30.548Z,14.02
2022-11-09T10:02:00.709Z,14.38
2022-11-09T10:04:41.155Z,14.64
2022-11-09T10:07:18.502Z,14.74
2022-11-09T10:10:30.088Z,14.64
2022-11-09T10:13:09.644Z,14.68
2022-11-09T10:16:21.634Z,14.65
2022-11-09T10:18:55.385Z,14.82
2022-11-09T10:21:46.534Z,14.78
2022-11-09T10:24:27.957Z,14.78
2022-11-09T10:27:06.201Z,14.87
2022-11-09T10:29:55.076Z,14.98
2022-11-09T10:32:31.370Z,14.86
2022-11-09T10:35:44.529Z,15.28
2022-11-09T10:38:19.704Z,15.19
2022-11-09T10:40:58.386Z,15.18
2022-11-09T10:43:27.122Z,15.08
2022-11-09T10:46:09.332Z,14.97
2022-11-09T10:48:40.558Z,15.12
2022-11-09T10:51:28.481Z,15.36
2022-11-09T10:54:18.016Z,15.46
2022-11-09T10:57:06.732Z,15.41
2022-11-09T10:59:44.550Z,15.19
2022-11-09T11:02:33.900Z,15.22
2022-11-09T11:05:12.833Z,15.41
2022-11-09T11:07:43.139Z,15.35
2022-11-09T11:10:21.231Z,15.31
2022-11-09T11:13:04.990Z,15.41
2022-11-09T11:15:45.610Z,15.56
2022-11-09T11:18:30.085Z,15.76
2022-11-09T11:21:19.836Z,15.83
2022-11-09T11:24:09.873Z,15.41
2022-11-09T11:26:59.626Z,15.78
2022-11-09T11:29:49.248Z,15.76
2022-11-09T11:32:21.019Z,15.58
2022-11-09T11:35:00.250Z,15.75
2022-11-09T11:37:35.845Z,15.87
2022-11-09T11:40:12.455Z,15.76
2022-11-09T11:45:45.471Z,15.53
2022-11-09T11:48:44.548Z,15.35
2022-11-09T11:51:28.212Z,15.29
2022-11-09T11:54:01.682Z,15.59
2022-11-09T11:57:00.339Z,15.56
2022-11-09T11:59:54.537Z,15.63
2022-11-09T12:06:27.370Z,15.66
2022-11-09T12:09:43.908Z,15.66
2022-11-09T12:25:49.654Z,15.60
2022-11-09T12:28:48.176Z,15.63
2022-11-09T12:31:39.117Z,15.42
2022-11-09T12:38:18.179Z,15.63
2022-11-09T12:41:00.915Z,15.76
2022-11-09T12:47:14.782Z,15.66
2022-11-09T12:56:28.192Z,15.47
2022-11-09T12:59:32.254Z,15.58
2022-11-09T13:05:33.716Z,15.63
2022-11-09T13:11:01.762Z,15.49
2022-11-09T13:13:31.883Z,15.49
2022-11-09T13:16:49.835Z,15.51
2022-11-09T13:29:32.132Z,15.51
2022-11-09T13:36:00.278Z,15.39
2022-11-09T13:39:03.396Z,15.32
2022-11-09T13:42:04.442Z,15.36
2022-11-09T13:50:49.213Z,15.21
2022-11-09T14:00:27.888Z,15.11
2022-11-09T14:16:39.423Z,14.83
2022-11-09T14:31:54.013Z,14.36
2022-11-09T14:34:42.980Z,14.30
2022-11-09T14:37:20.791Z,13.75
2022-11-09T14:39:54.536Z,14.06
2022-11-09T14:48:20.680Z,13.86
2022-11-09T14:51:10.673Z,13.72
2022-11-09T14:53:44.837Z,13.63
2022-11-09T14:56:23.573Z,13.50
2022-11-09T14:58:58.613Z,13.43
2022-11-09T15:01:28.530Z,13.26
2022-11-09T15:04:21.965Z,13.12
2022-11-09T15:07:02.636Z,12.98
2022-11-09T15:09:40.113Z,12.98
2022-11-09T15:27:12.601Z,12.10
2022-11-09T15:30:47.184Z,12.03
2022-11-09T15:46:09.028Z,11.78
2022-11-09T15:48:41.002Z,11.71
2022-11-09T15:51:10.635Z,11.61
2022-11-09T15:53:40.138Z,11.49
2022-11-09T15:56:29.691Z,11.43
2022-11-09T15:59:04.086Z,11.40
2022-11-09T16:07:57.525Z,11.17
2022-11-09T16:10:39.533Z,11.04
2022-11-09T16:13:06.251Z,10.99
2022-11-09T16:15:41.188Z,10.94
2022-11-09T16:18:14.854Z,11.06
2022-11-09T16:20:49.235Z,10.90
2022-11-09T16:23:22.995Z,10.77
2022-11-09T16:25:54.629Z,10.80
2022-11-09T16:28:30.005Z,10.75
2022-11-09T16:30:58.997Z,10.71
2022-11-09T16:33:42.931Z,10.61
2022-11-09T16:36:18.268Z,10.62
2022-11-09T16:38:59.519Z,10.54
2022-11-09T16:41:34.841Z,10.50
2022-11-09T16:44:13.449Z,10.50
2022-11-09T16:46:44.704Z,10.42
2022-11-09T16:49:13.757Z,10.41
2022-11-09T16:51:45.989Z,10.33
2022-11-09T16:54:17.808Z,10.34
2022-11-09T16:56:48.243Z,10.29
2022-11-09T16:59:20.413Z,10.27
2022-11-09T17:01:57.985Z,10.18
2022-11-09T17:04:39.018Z,10.09
2022-11-09T17:07:05.429Z,10.06
2022-11-09T17:09:36.858Z,10.18
2022-11-09T17:12:07.843Z,10.20
2022-11-09T17:14:36.746Z,10.03
2022-11-09T17:17:08.531Z,10.00
2022-11-09T17:19:49.947Z,10.04
2022-11-09T17:22:20.465Z,10.09
2022-11-09T17:24:49.141Z,9.93
2022-11-09T17:27:20.435Z,9.92
2022-11-09T17:29:59.489Z,9.82
2022-11-09T17:32:28.406Z,9.75
2022-11-09T17:34:57.109Z,9.82
2022-11-09T17:37:26.451Z,9.77
2022-11-09T17:39:56.806Z,9.72
2022-11-09T17:42:29.021Z,9.52
2022-11-09T17:45:17.392Z,9.57
2022-11-09T17:50:35.089Z,9.59
2022-11-09T17:53:37.016Z,9.54
2022-11-09T17:56:11.865Z,9.59
2022-11-09T17:58:44.758Z,9.50
2022-11-09T18:01:25.253Z,9.43
2022-11-09T18:03:57.405Z,9.47
2022-11-09T18:06:43.226Z,9.59
2022-11-09T18:12:13.694Z,9.37
2022-11-09T18:14:45.830Z,9.31
2022-11-09T18:17:17.624Z,9.26
2022-11-09T18:19:52.309Z,9.16
2022-11-09T18:22:24.376Z,9.11
2022-11-09T18:25:01.807Z,9.08
2022-11-09T18:27:33.700Z,9.08
2022-11-09T18:30:03.977Z,8.99
2022-11-09T18:32:40.216Z,8.99
2022-11-09T18:35:17.171Z,8.98
2022-11-09T18:37:50.083Z,8.91
2022-11-09T18:40:25.420Z,8.85
2022-11-09T18:43:03.037Z,8.93
2022-11-09T18:45:39.744Z,9.00
2022-11-09T18:48:21.569Z,9.01
2022-11-09T18:51:13.926Z,8.93
2022-11-09T18:53:50.193Z,8.87
2022-11-09T18:56:35.897Z,8.84
2022-11-09T18:59:18.338Z,8.70
2022-11-09T19:02:00.343Z,8.77
2022-11-09T19:04:53.739Z,8.77
2022-11-09T19:07:53.231Z,8.63
2022-11-09T19:10:11.280Z,8.43
2022-11-09T19:12:58.854Z,8.43
2022-11-09T19:15:21.836Z,8.34
2022-11-09T19:17:58.142Z,8.33
2022-11-09T19:20:35.831Z,8.28
2022-11-09T19:23:13.267Z,8.29
2022-11-09T19:25:46.001Z,8.31
2022-11-09T19:28:21.142Z,8.26
2022-11-09T19:33:53.100Z,8.21
2022-11-09T19:36:31.528Z,8.21
2022-11-09T19:39:04.093Z,8.19
2022-11-09T19:41:34.403Z,8.14
2022-11-09T19:44:06.710Z,8.27
2022-11-09T19:46:39.502Z,8.20
2022-11-09T19:49:23.430Z,8.25
2022-11-09T19:52:00.543Z,8.11
2022-11-09T19:54:35.267Z,7.54
2022-11-09T19:57:18.947Z,8.06
2022-11-09T20:02:31.206Z,8.04
2022-11-09T20:05:00.290Z,8.02
2022-11-09T20:07:31.148Z,8.03
2022-11-09T20:10:06.652Z,8.04
2022-11-09T20:13:00.031Z,8.02
2022-11-09T20:15:33.657Z,7.96
2022-11-09T20:18:06.846Z,7.84
2022-11-09T20:24:02.077Z,8.05
2022-11-09T20:26:35.615Z,7.90
2022-11-09T20:31:47.684Z,7.86
2022-11-09T20:34:25.067Z,7.86
2022-11-09T20:36:55.421Z,7.87
2022-11-09T20:39:36.980Z,7.89
2022-11-09T20:42:09.432Z,7.76
2022-11-09T20:47:57.352Z,7.66
2022-11-09T20:50:10.902Z,7.68
2022-11-09T20:52:44.360Z,7.71
2022-11-09T20:55:14.834Z,7.66
2022-11-09T20:57:48.281Z,7.72
2022-11-09T21:00:25.176Z,7.70
2022-11-09T21:03:23.987Z,7.63
2022-11-09T21:06:08.787Z,7.58
2022-11-09T21:08:38.046Z,7.58
2022-11-09T21:11:10.113Z,7.31
2022-11-09T21:13:43.055Z,7.52
2022-11-09T21:16:14.913Z,7.39
2022-11-09T21:21:40.531Z,7.37
2022-11-09T21:24:36.745Z,7.27
2022-11-09T21:27:48.991Z,7.33
2022-11-09T21:30:23.203Z,7.29
2022-11-09T21:35:59.633Z,7.18
2022-11-09T21:38:30.378Z,7.09
2022-11-09T21:41:08.521Z,7.07
2022-11-09T21:43:40.891Z,7.03
2022-11-09T21:46:13.624Z,6.92
2022-11-09T21:48:49.789Z,6.95
2022-11-09T21:51:27.698Z,7.02
2022-11-09T21:53:58.172Z,7.08
2022-11-09T21:56:35.626Z,6.99
2022-11-09T21:59:08.186Z,6.98
2022-11-09T22:01:37.409Z,6.94
2022-11-09T22:04:17.910Z,6.98
2022-11-09T22:07:07.009Z,6.85
2022-11-09T22:09:32.468Z,6.82
2022-11-09T22:12:16.587Z,6.79
2022-11-09T22:15:06.140Z,6.93
2022-11-09T22:17:38.711Z,6.95
2022-11-09T22:20:32.458Z,6.93
2022-11-09T22:23:03.055Z,6.88
2022-11-09T22:25:33.474Z,6.71
2022-11-09T22:28:02.244Z,6.66
2022-11-09T22:30:35.763Z,6.62
2022-11-09T22:33:08.283Z,6.65
2022-11-09T22:35:43.443Z,6.55
2022-11-09T22:38:12.099Z,6.45
2022-11-09T22:40:42.599Z,6.48
2022-11-09T22:43:27.813Z,6.53
2022-11-09T22:46:00.859Z,6.61
2022-11-09T22:48:48.840Z,6.52
2022-11-09T22:51:22.501Z,6.45
2022-11-09T22:53:52.010Z,6.45
2022-11-09T22:56:23.926Z,6.47
2022-11-09T22:59:10.980Z,6.45
2022-11-09T23:01:33.790Z,6.46
2022-11-09T23:04:02.574Z,6.41
2022-11-09T23:06:33.774Z,6.38
2022-11-09T23:11:56.839Z,6.25
2022-11-09T23:14:43.744Z,6.18
2022-11-09T23:17:15.507Z,6.20
2022-11-09T23:19:53.251Z,6.24
2022-11-09T23:22:22.190Z,6.23
2022-11-09T23:25:11.936Z,6.26
2022-11-09T23:27:40.862Z,6.17
2022-11-09T23:30:09.785Z,6.14
2022-11-09T23:32:38.430Z,6.15
2022-11-09T23:35:07.727Z,6.19
2022-11-09T23:37:36.430Z,6.19
2022-11-09T23:40:09.818Z,6.08
2022-11-09T23:42:41.889Z,6.13
2022-11-09T23:45:11.160Z,6.13
2022-11-09T23:47:42.576Z,6.04
2022-11-09T23:50:14.021Z,6.07
2022-11-09T23:52:44.140Z,5.91
2022-11-09T23:55:12.981Z,5.95
2022-11-09T23:57:44.797Z,5.99
